Haslet, TX (76052)

4:45 PM CDT on September 04, 2015 (GMT -0500)
Villages of Woodland Springs West | | Change Station
CLOSE
Current Station
Personal Weather Station
Location: Keller, TX
Elevation: 797 ft
Nearby Weather Stations

Elev 797 ft 32.95 °N, 97.31 °W | Updated 7 seconds ago

Scattered Clouds
Scattered Clouds
94.9 °F
Feels Like 97 °F
N
0.0
Wind Variable Wind from South
Gusts 0.0 mph

Today
High -- | Low -- °F
--% Chance of Precip.
Yesterday
High -- | Low -- °F
Precip. -- in
7:05 AM 7:50 PM
Waning Gibbous, 56% visible
Pressure 29.85 in
Visibility 10.0 miles
Clouds Scattered Clouds 6000 ft
Scattered Clouds 30000 ft
Heat Index 97 °F
Dew Point 65 °F
Humidity 37%
Rainfall 0.00 in
Snow Depth Not available.
UV 6 out of 12
Pollen 10.20 out of 12
Air Quality Not available.
Flu Activity Not available.
METAR KAFW 042053Z 14006KT 10SM SCT060 SCT300 36/19 A2990 RMK AO2 SLP107 T03560189 57018
Pressure 29.85 in
Visibility 10.0 miles
Clouds Scattered Clouds 6000 ft
Scattered Clouds 30000 ft
Heat Index 97 °F
Dew Point 65 °F
Humidity 37%
Rainfall 0.00 in
Snow Depth Not available.
UV 6 out of 12
Pollen 10.20 out of 12
Air Quality Not available.
Flu Activity Not available.
METAR KAFW 042053Z 14006KT 10SM SCT060 SCT300 36/19 A2990 RMK AO2 SLP107 T03560189 57018

10-Day Weather Forecast

×

Almanac

Astronomy

Sep. 04, 2015 Rise Set
Actual Time
Civil Twilight
Nautical Twilight
Astronomical Twilight
Moon
Length of Visible Light
Length of Day
Tomorrow will be .
, % of the Moon is Illuminated

Today's Extremes

State Highs State Lows

Community

WunderPhotos

Upload Photos

1,852,297 photos uploaded!

WunderBlogs® & News

Nearby

Air Quality

  Air Quality AQ Index Pollutant
Not available.

Snow Depth

Station Depth Elevation

Earthquake Activity

City Distance Mag. Time & Date
Minimum magnitude displayed is 2.5.

Coastal Water Temperatures

Place Temperature

Stations

Nearby Weather Stations

Station Location Temp. Windchill Dew Point Humidity Wind Precip. Elev Updated Type